KBAM

Details ICAO KBAM
Name BATTLE MOUNTAIN
Region United States
Timezone America/Los_Angeles (UTC-8.0)
Plans Departing 4
Arriving 4
Stats Elevation 4,532 ft / 1,381 m (AMSL)
Location 40.599051° -116.874331°
Runways 2
Magnetic Variation 12.957° E
Sunrise 2017-12-11 15:02:45 UTC / 2017-12-11 07:02:45 Local
Sunset 2017-12-12 00:21:57 UTC / 2017-12-11 16:21:57 Local
Advertisement - Login to hide

Runways

ID Width Length Bearing (true) Bearing (mag) Surface Threshold Offset Overrun Length
03 151 ft / 46 m 7,293 ft / 2,223 m 48.96° 36.00° Asphalt 0 ft / 0 m 0 ft / 0 m
12 98 ft / 30 m 7,302 ft / 2,226 m 139.26° 126.30° Asphalt 0 ft / 0 m 0 ft / 0 m
21 151 ft / 46 m 7,293 ft / 2,223 m 228.98° 216.02° Asphalt 0 ft / 0 m 0 ft / 0 m
30 98 ft / 30 m 7,302 ft / 2,226 m 319.27° 306.31° Asphalt 0 ft / 0 m 0 ft / 0 m

Map

Weather


0- 5 10 15 20 25 30 35+ Temperature / ° C

Clouds and Precipitation
Forecast for 2017-12-12 06:00 UTC. Updated 2 hours ago

Ground ~20,000 ft ~40,000 ft Winds

METAR

KBAM 120455Z AUTO 16004KT 10SM CLR M08/M10 A3054 RMK AO1

TAF

Not found

Frequencies

Recorded 119.45 MHz AWOS THREE
Unicom 122.80 MHz CTAF/UNICOM
Warning: Do not use this data for real-world aviation or navigation. No guarantee of current accuracy is given.